sensor_id;sensor_type;location;lat;lon;timestamp;P1;durP1;ratioP1;P2;durP2;ratioP2
66425;SDS011;53237;46.158;14.604;2023-05-29T00:01:19;4.97;;;4.10;;
66425;SDS011;53237;46.158;14.604;2023-05-29T00:03:46;4.30;;;3.90;;
66425;SDS011;53237;46.158;14.604;2023-05-29T00:06:12;5.70;;;4.25;;
66425;SDS011;53237;46.158;14.604;2023-05-29T00:08:38;4.65;;;4.10;;
66425;SDS011;53237;46.158;14.604;2023-05-29T00:11:04;5.45;;;4.28;;
66425;SDS011;53237;46.158;14.604;2023-05-29T00:13:31;4.88;;;3.72;;
66425;SDS011;53237;46.158;14.604;2023-05-29T00:15:56;4.65;;;3.45;;
66425;SDS011;53237;46.158;14.604;2023-05-29T00:18:24;5.20;;;3.88;;
66425;SDS011;53237;46.158;14.604;2023-05-29T00:20:50;3.90;;;3.53;;
66425;SDS011;53237;46.158;14.604;2023-05-29T00:23:17;4.45;;;3.72;;
66425;SDS011;53237;46.158;14.604;2023-05-29T00:25:43;3.28;;;2.97;;
66425;SDS011;53237;46.158;14.604;2023-05-29T00:28:09;3.70;;;3.25;;
66425;SDS011;53237;46.158;14.604;2023-05-29T00:30:37;3.55;;;3.25;;
66425;SDS011;53237;46.158;14.604;2023-05-29T00:33:03;4.07;;;3.67;;
66425;SDS011;53237;46.158;14.604;2023-05-29T00:35:29;4.38;;;3.60;;
66425;SDS011;53237;46.158;14.604;2023-05-29T00:37:55;3.65;;;3.28;;
66425;SDS011;53237;46.158;14.604;2023-05-29T00:40:21;4.53;;;3.55;;
66425;SDS011;53237;46.158;14.604;2023-05-29T00:42:47;3.97;;;3.03;;
66425;SDS011;53237;46.158;14.604;2023-05-29T00:45:13;4.57;;;3.90;;
66425;SDS011;53237;46.158;14.604;2023-05-29T00:47:40;4.00;;;3.60;;
66425;SDS011;53237;46.158;14.604;2023-05-29T00:50:08;3.45;;;3.15;;
66425;SDS011;53237;46.158;14.604;2023-05-29T00:52:34;3.88;;;3.47;;
66425;SDS011;53237;46.158;14.604;2023-05-29T00:55:00;4.15;;;3.47;;
66425;SDS011;53237;46.158;14.604;2023-05-29T00:57:27;3.83;;;3.53;;
66425;SDS011;53237;46.158;14.604;2023-05-29T00:59:53;4.00;;;3.67;;
66425;SDS011;53237;46.158;14.604;2023-05-29T01:02:19;4.18;;;3.60;;
66425;SDS011;53237;46.158;14.604;2023-05-29T01:04:46;4.15;;;3.55;;
66425;SDS011;53237;46.158;14.604;2023-05-29T01:07:12;4.63;;;3.50;;
66425;SDS011;53237;46.158;14.604;2023-05-29T01:09:39;4.95;;;4.32;;
66425;SDS011;53237;46.158;14.604;2023-05-29T01:14:52;4.53;;;4.13;;
66425;SDS011;53237;46.158;14.604;2023-05-29T01:20:11;6.65;;;5.18;;
66425;SDS011;53237;46.158;14.604;2023-05-29T01:25:25;7.10;;;4.50;;
66425;SDS011;53237;46.158;14.604;2023-05-29T01:27:55;6.38;;;4.82;;
66425;SDS011;53237;46.158;14.604;2023-05-29T01:30:22;7.47;;;4.75;;
66425;SDS011;53237;46.158;14.604;2023-05-29T01:32:49;5.00;;;4.10;;
66425;SDS011;53237;46.158;14.604;2023-05-29T01:35:15;6.38;;;5.35;;
66425;SDS011;53237;46.158;14.604;2023-05-29T01:37:41;5.10;;;4.60;;
66425;SDS011;53237;46.158;14.604;2023-05-29T01:40:08;7.07;;;5.63;;
66425;SDS011;53237;46.158;14.604;2023-05-29T01:42:34;6.22;;;5.32;;
66425;SDS011;53237;46.158;14.604;2023-05-29T01:45:00;4.65;;;4.25;;
66425;SDS011;53237;46.158;14.604;2023-05-29T01:47:28;6.32;;;4.80;;
66425;SDS011;53237;46.158;14.604;2023-05-29T01:49:55;5.35;;;4.20;;
66425;SDS011;53237;46.158;14.604;2023-05-29T01:52:21;4.32;;;3.92;;
66425;SDS011;53237;46.158;14.604;2023-05-29T01:54:47;6.35;;;4.82;;
66425;SDS011;53237;46.158;14.604;2023-05-29T01:57:13;5.30;;;4.80;;
66425;SDS011;53237;46.158;14.604;2023-05-29T01:59:39;4.50;;;4.10;;
66425;SDS011;53237;46.158;14.604;2023-05-29T02:02:09;6.32;;;4.90;;
66425;SDS011;53237;46.158;14.604;2023-05-29T02:04:37;6.22;;;4.78;;
66425;SDS011;53237;46.158;14.604;2023-05-29T02:07:03;4.88;;;4.45;;
66425;SDS011;53237;46.158;14.604;2023-05-29T02:09:30;5.72;;;4.78;;
66425;SDS011;53237;46.158;14.604;2023-05-29T02:11:56;5.18;;;4.65;;
66425;SDS011;53237;46.158;14.604;2023-05-29T02:18:01;7.82;;;4.75;;
66425;SDS011;53237;46.158;14.604;2023-05-29T02:20:27;6.32;;;5.32;;
66425;SDS011;53237;46.158;14.604;2023-05-29T02:22:52;5.65;;;4.85;;
66425;SDS011;53237;46.158;14.604;2023-05-29T02:25:18;7.65;;;5.68;;
66425;SDS011;53237;46.158;14.604;2023-05-29T02:27:44;5.35;;;4.85;;
66425;SDS011;53237;46.158;14.604;2023-05-29T02:30:10;5.57;;;5.05;;
66425;SDS011;53237;46.158;14.604;2023-05-29T02:32:36;4.53;;;4.13;;
66425;SDS011;53237;46.158;14.604;2023-05-29T02:35:03;5.57;;;5.05;;
66425;SDS011;53237;46.158;14.604;2023-05-29T02:37:29;4.63;;;4.18;;
66425;SDS011;53237;46.158;14.604;2023-05-29T02:39:55;5.90;;;4.70;;
66425;SDS011;53237;46.158;14.604;2023-05-29T02:42:21;4.72;;;4.22;;
66425;SDS011;53237;46.158;14.604;2023-05-29T02:44:46;5.00;;;4.50;;
66425;SDS011;53237;46.158;14.604;2023-05-29T02:47:12;5.63;;;4.85;;
66425;SDS011;53237;46.158;14.604;2023-05-29T02:49:38;4.68;;;4.18;;
66425;SDS011;53237;46.158;14.604;2023-05-29T02:52:04;5.13;;;4.30;;
66425;SDS011;53237;46.158;14.604;2023-05-29T02:54:31;4.88;;;4.35;;
66425;SDS011;53237;46.158;14.604;2023-05-29T02:56:56;5.75;;;4.28;;
66425;SDS011;53237;46.158;14.604;2023-05-29T02:59:22;5.20;;;4.07;;
66425;SDS011;53237;46.158;14.604;2023-05-29T03:01:48;4.88;;;4.38;;
66425;SDS011;53237;46.158;14.604;2023-05-29T03:04:15;4.20;;;3.80;;
66425;SDS011;53237;46.158;14.604;2023-05-29T03:06:42;4.88;;;4.38;;
66425;SDS011;53237;46.158;14.604;2023-05-29T03:09:08;4.55;;;4.15;;
66425;SDS011;53237;46.158;14.604;2023-05-29T03:11:34;4.32;;;3.92;;
66425;SDS011;53237;46.158;14.604;2023-05-29T03:14:01;5.85;;;4.30;;
66425;SDS011;53237;46.158;14.604;2023-05-29T03:16:27;5.93;;;4.20;;
66425;SDS011;53237;46.158;14.604;2023-05-29T03:24:43;4.65;;;4.15;;
66425;SDS011;53237;46.158;14.604;2023-05-29T03:27:09;4.32;;;3.72;;
66425;SDS011;53237;46.158;14.604;2023-05-29T03:29:35;5.05;;;4.60;;
66425;SDS011;53237;46.158;14.604;2023-05-29T03:32:01;4.55;;;4.15;;
66425;SDS011;53237;46.158;14.604;2023-05-29T03:34:27;5.70;;;4.53;;
66425;SDS011;53237;46.158;14.604;2023-05-29T03:36:53;4.40;;;4.00;;
66425;SDS011;53237;46.158;14.604;2023-05-29T03:39:19;4.13;;;3.72;;
66425;SDS011;53237;46.158;14.604;2023-05-29T03:41:45;4.43;;;4.03;;
66425;SDS011;53237;46.158;14.604;2023-05-29T03:44:11;4.55;;;4.15;;
66425;SDS011;53237;46.158;14.604;2023-05-29T03:46:37;5.88;;;4.63;;
66425;SDS011;53237;46.158;14.604;2023-05-29T03:49:03;5.15;;;4.25;;
66425;SDS011;53237;46.158;14.604;2023-05-29T03:51:29;4.65;;;4.15;;
66425;SDS011;53237;46.158;14.604;2023-05-29T03:53:57;4.22;;;3.67;;
66425;SDS011;53237;46.158;14.604;2023-05-29T03:56:52;4.80;;;4.22;;
66425;SDS011;53237;46.158;14.604;2023-05-29T03:59:18;4.40;;;4.00;;
66425;SDS011;53237;46.158;14.604;2023-05-29T04:01:44;5.30;;;4.40;;
66425;SDS011;53237;46.158;14.604;2023-05-29T04:04:10;5.25;;;4.07;;
66425;SDS011;53237;46.158;14.604;2023-05-29T04:06:43;4.97;;;4.30;;
66425;SDS011;53237;46.158;14.604;2023-05-29T04:09:30;4.95;;;4.07;;
66425;SDS011;53237;46.158;14.604;2023-05-29T04:11:55;3.92;;;3.60;;
66425;SDS011;53237;46.158;14.604;2023-05-29T04:17:25;5.03;;;4.53;;
66425;SDS011;53237;46.158;14.604;2023-05-29T04:19:51;5.60;;;4.47;;
66425;SDS011;53237;46.158;14.604;2023-05-29T04:22:17;4.95;;;4.00;;
66425;SDS011;53237;46.158;14.604;2023-05-29T04:24:44;4.03;;;3.63;;
66425;SDS011;53237;46.158;14.604;2023-05-29T04:27:10;4.85;;;3.58;;
66425;SDS011;53237;46.158;14.604;2023-05-29T04:29:38;4.07;;;3.67;;
66425;SDS011;53237;46.158;14.604;2023-05-29T04:32:05;3.97;;;3.58;;
66425;SDS011;53237;46.158;14.604;2023-05-29T04:34:33;4.20;;;3.80;;
66425;SDS011;53237;46.158;14.604;2023-05-29T04:36:59;4.47;;;3.88;;
66425;SDS011;53237;46.158;14.604;2023-05-29T04:39:25;3.95;;;3.60;;
66425;SDS011;53237;46.158;14.604;2023-05-29T04:41:51;4.05;;;3.65;;
66425;SDS011;53237;46.158;14.604;2023-05-29T04:44:17;4.50;;;3.80;;
66425;SDS011;53237;46.158;14.604;2023-05-29T04:46:44;4.30;;;3.72;;
66425;SDS011;53237;46.158;14.604;2023-05-29T04:49:10;3.85;;;3.55;;
66425;SDS011;53237;46.158;14.604;2023-05-29T04:51:38;3.55;;;3.25;;
66425;SDS011;53237;46.158;14.604;2023-05-29T04:54:06;3.75;;;3.45;;
66425;SDS011;53237;46.158;14.604;2023-05-29T04:56:46;5.20;;;3.83;;
66425;SDS011;53237;46.158;14.604;2023-05-29T04:59:12;4.43;;;3.60;;
66425;SDS011;53237;46.158;14.604;2023-05-29T05:01:38;5.75;;;4.50;;
66425;SDS011;53237;46.158;14.604;2023-05-29T05:04:04;5.45;;;4.10;;
66425;SDS011;53237;46.158;14.604;2023-05-29T05:06:30;4.03;;;3.60;;
66425;SDS011;53237;46.158;14.604;2023-05-29T05:08:56;4.38;;;3.97;;
66425;SDS011;53237;46.158;14.604;2023-05-29T05:11:22;4.15;;;3.75;;
66425;SDS011;53237;46.158;14.604;2023-05-29T05:13:49;3.78;;;3.47;;
66425;SDS011;53237;46.158;14.604;2023-05-29T05:16:15;4.35;;;3.65;;
66425;SDS011;53237;46.158;14.604;2023-05-29T05:18:41;4.30;;;3.90;;
66425;SDS011;53237;46.158;14.604;2023-05-29T05:21:07;4.50;;;4.10;;
66425;SDS011;53237;46.158;14.604;2023-05-29T05:23:33;3.83;;;3.50;;
66425;SDS011;53237;46.158;14.604;2023-05-29T05:25:59;5.47;;;4.72;;
66425;SDS011;53237;46.158;14.604;2023-05-29T05:28:25;5.55;;;4.47;;
66425;SDS011;53237;46.158;14.604;2023-05-29T05:30:51;6.28;;;4.97;;
66425;SDS011;53237;46.158;14.604;2023-05-29T05:33:17;5.30;;;4.78;;
66425;SDS011;53237;46.158;14.604;2023-05-29T05:35:43;6.40;;;5.07;;
66425;SDS011;53237;46.158;14.604;2023-05-29T05:38:09;6.13;;;4.75;;
66425;SDS011;53237;46.158;14.604;2023-05-29T05:40:35;4.47;;;3.88;;
66425;SDS011;53237;46.158;14.604;2023-05-29T05:43:01;5.22;;;4.25;;
66425;SDS011;53237;46.158;14.604;2023-05-29T05:45:27;7.28;;;6.07;;
66425;SDS011;53237;46.158;14.604;2023-05-29T05:47:53;6.50;;;5.57;;
66425;SDS011;53237;46.158;14.604;2023-05-29T05:50:19;6.07;;;4.78;;
66425;SDS011;53237;46.158;14.604;2023-05-29T05:52:46;8.45;;;6.45;;
66425;SDS011;53237;46.158;14.604;2023-05-29T05:55:12;6.85;;;5.72;;
66425;SDS011;53237;46.158;14.604;2023-05-29T05:57:38;5.93;;;5.38;;
66425;SDS011;53237;46.158;14.604;2023-05-29T06:00:04;6.03;;;4.13;;
66425;SDS011;53237;46.158;14.604;2023-05-29T06:02:38;5.00;;;4.10;;
66425;SDS011;53237;46.158;14.604;2023-05-29T06:05:07;5.72;;;4.50;;
66425;SDS011;53237;46.158;14.604;2023-05-29T06:07:34;5.95;;;4.65;;
66425;SDS011;53237;46.158;14.604;2023-05-29T06:10:00;5.93;;;4.57;;
66425;SDS011;53237;46.158;14.604;2023-05-29T06:12:26;4.88;;;4.47;;
66425;SDS011;53237;46.158;14.604;2023-05-29T06:14:52;7.45;;;5.47;;
66425;SDS011;53237;46.158;14.604;2023-05-29T06:17:18;5.88;;;5.22;;
66425;SDS011;53237;46.158;14.604;2023-05-29T06:19:44;6.13;;;5.20;;
66425;SDS011;53237;46.158;14.604;2023-05-29T06:22:10;5.50;;;4.93;;
66425;SDS011;53237;46.158;14.604;2023-05-29T06:24:36;4.85;;;4.45;;
66425;SDS011;53237;46.158;14.604;2023-05-29T06:27:02;6.30;;;5.22;;
66425;SDS011;53237;46.158;14.604;2023-05-29T06:29:28;5.82;;;5.10;;
66425;SDS011;53237;46.158;14.604;2023-05-29T06:31:54;6.47;;;4.90;;
66425;SDS011;53237;46.158;14.604;2023-05-29T06:34:20;9.38;;;5.32;;
66425;SDS011;53237;46.158;14.604;2023-05-29T06:36:46;7.78;;;5.95;;
66425;SDS011;53237;46.158;14.604;2023-05-29T06:39:13;7.07;;;5.93;;
66425;SDS011;53237;46.158;14.604;2023-05-29T06:41:40;8.32;;;5.70;;
66425;SDS011;53237;46.158;14.604;2023-05-29T06:44:06;7.60;;;5.70;;
66425;SDS011;53237;46.158;14.604;2023-05-29T06:46:42;6.80;;;5.30;;
66425;SDS011;53237;46.158;14.604;2023-05-29T06:49:46;9.13;;;5.50;;
66425;SDS011;53237;46.158;14.604;2023-05-29T06:52:12;4.70;;;4.30;;
66425;SDS011;53237;46.158;14.604;2023-05-29T06:54:38;5.30;;;4.80;;
66425;SDS011;53237;46.158;14.604;2023-05-29T06:57:05;7.78;;;5.20;;
66425;SDS011;53237;46.158;14.604;2023-05-29T06:59:31;6.00;;;5.10;;
66425;SDS011;53237;46.158;14.604;2023-05-29T07:01:57;4.93;;;4.40;;
66425;SDS011;53237;46.158;14.604;2023-05-29T07:04:23;5.22;;;4.72;;
66425;SDS011;53237;46.158;14.604;2023-05-29T07:06:49;6.22;;;5.32;;
66425;SDS011;53237;46.158;14.604;2023-05-29T07:09:15;6.55;;;5.22;;
66425;SDS011;53237;46.158;14.604;2023-05-29T07:11:41;5.75;;;5.18;;
66425;SDS011;53237;46.158;14.604;2023-05-29T07:14:07;7.28;;;5.50;;
66425;SDS011;53237;46.158;14.604;2023-05-29T07:16:33;8.40;;;5.47;;
66425;SDS011;53237;46.158;14.604;2023-05-29T07:18:59;7.18;;;5.55;;
66425;SDS011;53237;46.158;14.604;2023-05-29T07:21:25;5.03;;;4.53;;
66425;SDS011;53237;46.158;14.604;2023-05-29T07:23:51;9.57;;;5.93;;
66425;SDS011;53237;46.158;14.604;2023-05-29T07:26:17;5.28;;;4.55;;
66425;SDS011;53237;46.158;14.604;2023-05-29T07:28:43;8.38;;;4.60;;
66425;SDS011;53237;46.158;14.604;2023-05-29T07:31:09;5.85;;;4.47;;
66425;SDS011;53237;46.158;14.604;2023-05-29T07:33:35;8.10;;;5.60;;
66425;SDS011;53237;46.158;14.604;2023-05-29T07:36:01;9.60;;;6.15;;
66425;SDS011;53237;46.158;14.604;2023-05-29T07:38:27;4.70;;;4.30;;
66425;SDS011;53237;46.158;14.604;2023-05-29T07:40:53;5.72;;;4.60;;
66425;SDS011;53237;46.158;14.604;2023-05-29T07:43:19;4.93;;;4.28;;
66425;SDS011;53237;46.158;14.604;2023-05-29T07:45:45;6.15;;;4.97;;
66425;SDS011;53237;46.158;14.604;2023-05-29T07:48:11;4.72;;;4.22;;
66425;SDS011;53237;46.158;14.604;2023-05-29T07:50:37;8.07;;;5.57;;
66425;SDS011;53237;46.158;14.604;2023-05-29T07:53:03;5.75;;;4.65;;
66425;SDS011;53237;46.158;14.604;2023-05-29T07:55:29;5.53;;;4.70;;
66425;SDS011;53237;46.158;14.604;2023-05-29T07:57:55;6.88;;;4.70;;
66425;SDS011;53237;46.158;14.604;2023-05-29T08:00:21;9.00;;;5.30;;
66425;SDS011;53237;46.158;14.604;2023-05-29T08:02:47;4.53;;;4.13;;
66425;SDS011;53237;46.158;14.604;2023-05-29T08:05:13;4.78;;;4.28;;
66425;SDS011;53237;46.158;14.604;2023-05-29T08:07:39;6.38;;;4.78;;
66425;SDS011;53237;46.158;14.604;2023-05-29T08:10:05;5.15;;;4.30;;
66425;SDS011;53237;46.158;14.604;2023-05-29T08:12:31;6.07;;;5.03;;
66425;SDS011;53237;46.158;14.604;2023-05-29T08:14:59;6.10;;;4.45;;
66425;SDS011;53237;46.158;14.604;2023-05-29T08:17:25;5.25;;;4.55;;
66425;SDS011;53237;46.158;14.604;2023-05-29T08:19:51;6.35;;;4.78;;
66425;SDS011;53237;46.158;14.604;2023-05-29T08:22:17;4.72;;;4.30;;
66425;SDS011;53237;46.158;14.604;2023-05-29T08:24:43;5.25;;;4.00;;
66425;SDS011;53237;46.158;14.604;2023-05-29T08:27:09;4.30;;;3.70;;
66425;SDS011;53237;46.158;14.604;2023-05-29T08:29:35;3.80;;;3.50;;
66425;SDS011;53237;46.158;14.604;2023-05-29T08:32:01;3.85;;;3.45;;
66425;SDS011;53237;46.158;14.604;2023-05-29T08:34:27;3.90;;;3.53;;
66425;SDS011;53237;46.158;14.604;2023-05-29T08:36:53;4.40;;;3.60;;
66425;SDS011;53237;46.158;14.604;2023-05-29T08:39:20;3.70;;;3.30;;
66425;SDS011;53237;46.158;14.604;2023-05-29T08:41:51;3.72;;;3.38;;
66425;SDS011;53237;46.158;14.604;2023-05-29T08:44:21;4.13;;;3.10;;
66425;SDS011;53237;46.158;14.604;2023-05-29T08:46:49;5.72;;;3.15;;
66425;SDS011;53237;46.158;14.604;2023-05-29T08:49:17;4.50;;;3.28;;
66425;SDS011;53237;46.158;14.604;2023-05-29T08:51:47;5.40;;;3.47;;
66425;SDS011;53237;46.158;14.604;2023-05-29T08:54:15;3.55;;;3.13;;
66425;SDS011;53237;46.158;14.604;2023-05-29T08:56:41;4.05;;;3.17;;
66425;SDS011;53237;46.158;14.604;2023-05-29T08:59:08;6.03;;;3.60;;
66425;SDS011;53237;46.158;14.604;2023-05-29T09:01:34;3.88;;;3.30;;
66425;SDS011;53237;46.158;14.604;2023-05-29T09:04:01;3.97;;;3.17;;
66425;SDS011;53237;46.158;14.604;2023-05-29T09:06:27;5.45;;;3.72;;
66425;SDS011;53237;46.158;14.604;2023-05-29T09:08:53;5.10;;;3.60;;
66425;SDS011;53237;46.158;14.604;2023-05-29T09:11:20;4.47;;;3.60;;
66425;SDS011;53237;46.158;14.604;2023-05-29T09:13:46;4.32;;;3.50;;
66425;SDS011;53237;46.158;14.604;2023-05-29T09:16:12;6.43;;;3.45;;
66425;SDS011;53237;46.158;14.604;2023-05-29T09:18:38;5.13;;;3.50;;
66425;SDS011;53237;46.158;14.604;2023-05-29T09:21:06;4.00;;;3.00;;
66425;SDS011;53237;46.158;14.604;2023-05-29T09:23:34;3.53;;;3.22;;
66425;SDS011;53237;46.158;14.604;2023-05-29T09:26:02;3.90;;;3.33;;
66425;SDS011;53237;46.158;14.604;2023-05-29T09:28:29;3.50;;;3.20;;
66425;SDS011;53237;46.158;14.604;2023-05-29T09:30:56;4.03;;;3.42;;
66425;SDS011;53237;46.158;14.604;2023-05-29T09:33:23;3.88;;;3.47;;
66425;SDS011;53237;46.158;14.604;2023-05-29T09:35:51;4.50;;;3.30;;
66425;SDS011;53237;46.158;14.604;2023-05-29T09:38:18;4.18;;;3.25;;
66425;SDS011;53237;46.158;14.604;2023-05-29T09:40:44;6.45;;;4.30;;
66425;SDS011;53237;46.158;14.604;2023-05-29T09:43:18;3.83;;;3.20;;
66425;SDS011;53237;46.158;14.604;2023-05-29T09:45:46;4.57;;;3.97;;
66425;SDS011;53237;46.158;14.604;2023-05-29T09:48:12;3.65;;;3.13;;
66425;SDS011;53237;46.158;14.604;2023-05-29T09:50:39;5.20;;;3.67;;
66425;SDS011;53237;46.158;14.604;2023-05-29T09:55:44;4.32;;;3.53;;
66425;SDS011;53237;46.158;14.604;2023-05-29T09:58:11;4.93;;;3.70;;
66425;SDS011;53237;46.158;14.604;2023-05-29T10:00:39;3.83;;;3.42;;
66425;SDS011;53237;46.158;14.604;2023-05-29T10:03:05;4.40;;;3.97;;
66425;SDS011;53237;46.158;14.604;2023-05-29T10:05:31;4.10;;;3.70;;
66425;SDS011;53237;46.158;14.604;2023-05-29T10:07:57;3.67;;;3.38;;
66425;SDS011;53237;46.158;14.604;2023-05-29T10:10:27;3.63;;;3.20;;
66425;SDS011;53237;46.158;14.604;2023-05-29T10:12:53;3.58;;;3.15;;
66425;SDS011;53237;46.158;14.604;2023-05-29T10:15:19;4.40;;;3.60;;
66425;SDS011;53237;46.158;14.604;2023-05-29T10:17:49;5.18;;;3.78;;
66425;SDS011;53237;46.158;14.604;2023-05-29T10:20:16;3.38;;;3.00;;
66425;SDS011;53237;46.158;14.604;2023-05-29T10:22:45;3.60;;;3.30;;
66425;SDS011;53237;46.158;14.604;2023-05-29T10:25:11;3.90;;;3.30;;
66425;SDS011;53237;46.158;14.604;2023-05-29T10:27:38;3.70;;;3.35;;
66425;SDS011;53237;46.158;14.604;2023-05-29T10:30:06;4.65;;;3.55;;
66425;SDS011;53237;46.158;14.604;2023-05-29T10:35:22;3.55;;;2.88;;
66425;SDS011;53237;46.158;14.604;2023-05-29T10:37:59;3.72;;;3.28;;
66425;SDS011;53237;46.158;14.604;2023-05-29T10:40:27;4.88;;;2.97;;
66425;SDS011;53237;46.158;14.604;2023-05-29T10:42:53;3.35;;;3.05;;
66425;SDS011;53237;46.158;14.604;2023-05-29T10:47:56;3.85;;;3.45;;
66425;SDS011;53237;46.158;14.604;2023-05-29T10:50:45;4.00;;;3.30;;
66425;SDS011;53237;46.158;14.604;2023-05-29T10:53:22;3.78;;;3.33;;
66425;SDS011;53237;46.158;14.604;2023-05-29T10:55:48;3.40;;;3.10;;
66425;SDS011;53237;46.158;14.604;2023-05-29T10:58:19;4.38;;;3.00;;
66425;SDS011;53237;46.158;14.604;2023-05-29T11:00:46;4.50;;;3.20;;
66425;SDS011;53237;46.158;14.604;2023-05-29T11:03:18;4.18;;;3.78;;
66425;SDS011;53237;46.158;14.604;2023-05-29T11:08:33;3.75;;;3.35;;
66425;SDS011;53237;46.158;14.604;2023-05-29T11:11:00;3.70;;;3.40;;
66425;SDS011;53237;46.158;14.604;2023-05-29T11:13:30;4.85;;;3.65;;
66425;SDS011;53237;46.158;14.604;2023-05-29T11:16:04;3.85;;;3.45;;
66425;SDS011;53237;46.158;14.604;2023-05-29T11:18:31;5.82;;;3.55;;
66425;SDS011;53237;46.158;14.604;2023-05-29T11:20:57;4.07;;;3.40;;
66425;SDS011;53237;46.158;14.604;2023-05-29T11:23:25;4.63;;;4.00;;
66425;SDS011;53237;46.158;14.604;2023-05-29T11:28:22;4.35;;;3.53;;
66425;SDS011;53237;46.158;14.604;2023-05-29T11:30:48;5.22;;;3.97;;
66425;SDS011;53237;46.158;14.604;2023-05-29T11:35:43;4.07;;;3.63;;
66425;SDS011;53237;46.158;14.604;2023-05-29T11:38:09;5.32;;;3.55;;
66425;SDS011;53237;46.158;14.604;2023-05-29T11:40:36;3.70;;;3.40;;
66425;SDS011;53237;46.158;14.604;2023-05-29T11:43:03;5.25;;;4.05;;
66425;SDS011;53237;46.158;14.604;2023-05-29T11:45:31;4.85;;;3.80;;
66425;SDS011;53237;46.158;14.604;2023-05-29T11:47:58;5.75;;;4.25;;
66425;SDS011;53237;46.158;14.604;2023-05-29T11:50:25;5.35;;;3.80;;
66425;SDS011;53237;46.158;14.604;2023-05-29T11:52:52;4.85;;;3.60;;
66425;SDS011;53237;46.158;14.604;2023-05-29T11:55:22;5.80;;;4.10;;
66425;SDS011;53237;46.158;14.604;2023-05-29T11:57:48;7.43;;;4.68;;
66425;SDS011;53237;46.158;14.604;2023-05-29T12:00:15;6.47;;;3.72;;
66425;SDS011;53237;46.158;14.604;2023-05-29T12:02:41;5.10;;;3.78;;
66425;SDS011;53237;46.158;14.604;2023-05-29T12:05:08;3.75;;;3.35;;
66425;SDS011;53237;46.158;14.604;2023-05-29T12:07:34;5.00;;;3.38;;
66425;SDS011;53237;46.158;14.604;2023-05-29T12:10:14;5.03;;;3.60;;
66425;SDS011;53237;46.158;14.604;2023-05-29T12:12:41;4.45;;;3.70;;
66425;SDS011;53237;46.158;14.604;2023-05-29T12:15:07;4.25;;;3.83;;
66425;SDS011;53237;46.158;14.604;2023-05-29T12:17:34;3.90;;;3.60;;
66425;SDS011;53237;46.158;14.604;2023-05-29T12:20:01;5.32;;;3.95;;
66425;SDS011;53237;46.158;14.604;2023-05-29T12:22:38;4.60;;;3.70;;
66425;SDS011;53237;46.158;14.604;2023-05-29T12:25:06;4.70;;;4.07;;
66425;SDS011;53237;46.158;14.604;2023-05-29T12:27:33;4.70;;;3.75;;
66425;SDS011;53237;46.158;14.604;2023-05-29T12:30:03;3.67;;;3.38;;
66425;SDS011;53237;46.158;14.604;2023-05-29T12:35:09;5.47;;;4.18;;
66425;SDS011;53237;46.158;14.604;2023-05-29T12:37:35;3.92;;;3.53;;
66425;SDS011;53237;46.158;14.604;2023-05-29T12:40:13;3.95;;;3.55;;
66425;SDS011;53237;46.158;14.604;2023-05-29T12:42:40;3.97;;;3.58;;
66425;SDS011;53237;46.158;14.604;2023-05-29T12:45:07;4.63;;;4.20;;
66425;SDS011;53237;46.158;14.604;2023-05-29T12:47:34;5.22;;;4.50;;
66425;SDS011;53237;46.158;14.604;2023-05-29T12:50:04;6.80;;;4.18;;
66425;SDS011;53237;46.158;14.604;2023-05-29T12:52:30;6.15;;;4.10;;
66425;SDS011;53237;46.158;14.604;2023-05-29T12:54:56;4.40;;;3.92;;
66425;SDS011;53237;46.158;14.604;2023-05-29T12:57:22;4.00;;;3.60;;
66425;SDS011;53237;46.158;14.604;2023-05-29T12:59:48;3.30;;;3.00;;
66425;SDS011;53237;46.158;14.604;2023-05-29T13:02:14;4.90;;;3.85;;
66425;SDS011;53237;46.158;14.604;2023-05-29T13:04:41;4.03;;;3.25;;
66425;SDS011;53237;46.158;14.604;2023-05-29T13:07:06;4.32;;;3.20;;
66425;SDS011;53237;46.158;14.604;2023-05-29T13:09:32;4.50;;;3.22;;
66425;SDS011;53237;46.158;14.604;2023-05-29T13:11:58;4.00;;;3.30;;
66425;SDS011;53237;46.158;14.604;2023-05-29T13:14:26;4.20;;;3.80;;
66425;SDS011;53237;46.158;14.604;2023-05-29T13:16:52;6.70;;;3.55;;
66425;SDS011;53237;46.158;14.604;2023-05-29T13:19:18;3.65;;;3.28;;
66425;SDS011;53237;46.158;14.604;2023-05-29T13:21:44;3.38;;;3.05;;
66425;SDS011;53237;46.158;14.604;2023-05-29T13:24:13;4.22;;;3.67;;
66425;SDS011;53237;46.158;14.604;2023-05-29T13:26:39;3.60;;;3.25;;
66425;SDS011;53237;46.158;14.604;2023-05-29T13:29:05;6.70;;;4.07;;
66425;SDS011;53237;46.158;14.604;2023-05-29T13:31:31;4.10;;;3.70;;
66425;SDS011;53237;46.158;14.604;2023-05-29T13:33:57;4.40;;;3.72;;
66425;SDS011;53237;46.158;14.604;2023-05-29T13:36:23;3.67;;;3.10;;
66425;SDS011;53237;46.158;14.604;2023-05-29T13:38:49;4.97;;;4.13;;
66425;SDS011;53237;46.158;14.604;2023-05-29T13:41:15;6.25;;;4.32;;
66425;SDS011;53237;46.158;14.604;2023-05-29T13:43:41;4.47;;;3.70;;
66425;SDS011;53237;46.158;14.604;2023-05-29T13:46:07;4.68;;;3.40;;
66425;SDS011;53237;46.158;14.604;2023-05-29T13:48:33;4.20;;;3.67;;
66425;SDS011;53237;46.158;14.604;2023-05-29T13:50:59;5.18;;;3.72;;
66425;SDS011;53237;46.158;14.604;2023-05-29T13:53:25;4.28;;;3.88;;
66425;SDS011;53237;46.158;14.604;2023-05-29T13:55:51;5.60;;;4.10;;
66425;SDS011;53237;46.158;14.604;2023-05-29T13:58:17;3.70;;;3.40;;
66425;SDS011;53237;46.158;14.604;2023-05-29T14:00:43;3.58;;;3.13;;
66425;SDS011;53237;46.158;14.604;2023-05-29T14:03:09;3.90;;;3.50;;
66425;SDS011;53237;46.158;14.604;2023-05-29T14:05:35;3.50;;;3.20;;
66425;SDS011;53237;46.158;14.604;2023-05-29T14:08:01;3.78;;;3.47;;
66425;SDS011;53237;46.158;14.604;2023-05-29T14:10:27;4.10;;;3.70;;
66425;SDS011;53237;46.158;14.604;2023-05-29T14:12:53;6.82;;;4.03;;
66425;SDS011;53237;46.158;14.604;2023-05-29T14:15:19;4.90;;;3.90;;
66425;SDS011;53237;46.158;14.604;2023-05-29T14:17:45;3.83;;;3.45;;
66425;SDS011;53237;46.158;14.604;2023-05-29T14:20:11;4.10;;;3.65;;
66425;SDS011;53237;46.158;14.604;2023-05-29T14:22:37;3.80;;;3.40;;
66425;SDS011;53237;46.158;14.604;2023-05-29T14:25:03;18.63;;;5.20;;
66425;SDS011;53237;46.158;14.604;2023-05-29T14:27:29;12.38;;;4.38;;
66425;SDS011;53237;46.158;14.604;2023-05-29T14:29:55;7.57;;;3.63;;
66425;SDS011;53237;46.158;14.604;2023-05-29T14:32:21;6.85;;;4.22;;
66425;SDS011;53237;46.158;14.604;2023-05-29T14:34:47;6.25;;;3.78;;
66425;SDS011;53237;46.158;14.604;2023-05-29T14:37:14;6.63;;;4.70;;
66425;SDS011;53237;46.158;14.604;2023-05-29T14:39:40;4.88;;;4.13;;
66425;SDS011;53237;46.158;14.604;2023-05-29T14:42:06;5.97;;;4.40;;
66425;SDS011;53237;46.158;14.604;2023-05-29T14:44:32;4.82;;;3.53;;
66425;SDS011;53237;46.158;14.604;2023-05-29T14:46:58;5.95;;;3.88;;
66425;SDS011;53237;46.158;14.604;2023-05-29T14:49:24;3.63;;;3.33;;
66425;SDS011;53237;46.158;14.604;2023-05-29T14:51:53;5.10;;;3.63;;
66425;SDS011;53237;46.158;14.604;2023-05-29T14:54:19;5.15;;;3.65;;
66425;SDS011;53237;46.158;14.604;2023-05-29T14:56:46;7.72;;;4.60;;
66425;SDS011;53237;46.158;14.604;2023-05-29T14:59:12;11.57;;;4.57;;
66425;SDS011;53237;46.158;14.604;2023-05-29T15:01:38;5.68;;;4.70;;
66425;SDS011;53237;46.158;14.604;2023-05-29T15:04:04;5.13;;;3.88;;
66425;SDS011;53237;46.158;14.604;2023-05-29T15:06:30;5.85;;;4.07;;
66425;SDS011;53237;46.158;14.604;2023-05-29T15:08:57;4.47;;;3.92;;
66425;SDS011;53237;46.158;14.604;2023-05-29T15:11:25;5.68;;;3.75;;